OPA Logo
 
ASOS:
At:2020.04.09 0355 UTC
Wind:300° @ 6KT
Viz: 10 mile(s)
Sky: clear
Temp: 51 F (11 C)
DewP: 24 F (-4 C)
RH: 34%
Baro: 30.16 in.
ob: KBDN 090355Z AUTO 30006KT 10SM CLR 11/M04 A3016 RMK AO2

ASOS: KRDM
At:2020.04.09 0356 UTC
Wind:330° @ 5KT
Viz: 10 mile(s)
Sky: clear
Temp: 53.1 F (11.7 C)
DewP: 26.1 F (-3.3 C)
RH: 34%
Baro: 30.16 in.
ob: KRDM 090356Z AUTO 33005KT 10SM CLR 12/M03 A3016 RMK AO2 SLP211 T01171033
Apache-SSL Logo

Valid HTML 4.01!

Central Oregon OPA Chapter

Chapter Officers 2006:

President
Gary E. Miller
109 NW Wilmington Ave.
Bend OR 97701
541 382-8588
gem@rellim.com

Vice President:
Open

Secretary/Treasurer:
Don Wilfong
210 SE Cessna Dr
Bend OR 97702
541 389-1456
dwnw@bendbroadband.com


Web page by: gem@rellim.com